Time;durP1;ratioP1;P1;durP2;ratioP2;P2;SDS_P1;SDS_P2;PMS_P1;PMS_P2;Temp;Humidity;BMP_temperature;BMP_pressure;BME280_temperature;BME280_humidity;BME280_pressure;Samples;Min_cycle;Max_cycle;Signal;HPM_P1;HPM_P2
2023/03/29 00:00:27;;;;;;;1.63;1.30;;;11.30;99.90;;;;;;5033805;28;20234;-39
2023/03/29 00:02:55;;;;;;;2.00;1.40;;;11.30;99.90;;;;;;5034468;28;20056;-36
2023/03/29 00:05:24;;;;;;;1.58;1.33;;;11.30;99.90;;;;;;5032441;28;20013;-38
2023/03/29 00:07:52;;;;;;;3.00;1.65;;;11.30;99.90;;;;;;5032200;28;20049;-41
2023/03/29 00:10:19;;;;;;;3.40;1.63;;;11.30;99.90;;;;;;5032504;28;20541;-39
2023/03/29 00:12:45;;;;;;;3.90;1.40;;;11.30;99.90;;;;;;5032263;28;20022;-36
2023/03/29 00:15:11;;;;;;;1.90;1.15;;;11.30;99.90;;;;;;5031629;28;20030;-40
2023/03/29 00:17:37;;;;;;;2.92;1.58;;;11.30;99.90;;;;;;5032758;28;20064;-37
2023/03/29 00:20:09;;;;;;;1.55;1.30;;;11.30;99.90;;;;;;5032929;28;20061;-38
2023/03/29 00:22:36;;;;;;;4.03;1.50;;;11.30;99.90;;;;;;5032761;28;20022;-35
2023/03/29 00:25:03;;;;;;;1.95;1.10;;;11.30;99.90;;;;;;5032773;28;20036;-40
2023/03/29 00:27:28;;;;;;;2.63;1.30;;;11.30;99.90;;;;;;5033094;28;20056;-36
2023/03/29 00:29:55;;;;;;;2.17;1.40;;;11.30;99.90;;;;;;5031271;28;20566;-37
2023/03/29 00:32:22;;;;;;;2.70;1.30;;;11.30;99.90;;;;;;5035067;28;20025;-36
2023/03/29 00:34:49;;;;;;;2.50;1.30;;;11.30;99.90;;;;;;5033264;28;20628;-37
2023/03/29 00:37:17;;;;;;;2.03;1.45;;;11.30;99.90;;;;;;5032572;28;20052;-36
2023/03/29 00:39:47;;;;;;;3.10;1.50;;;11.20;99.90;;;;;;5032369;28;20483;-36
2023/03/29 00:42:14;;;;;;;2.10;1.48;;;11.20;99.90;;;;;;5031887;28;20033;-38
2023/03/29 00:45:01;;;;;;;2.03;1.50;;;11.20;99.90;;;;;;5031954;28;20431;-36
2023/03/29 00:47:29;;;;;;;3.22;1.55;;;11.20;99.90;;;;;;5032201;28;20032;-36
2023/03/29 00:50:00;;;;;;;2.88;1.17;;;11.20;99.90;;;;;;5032839;28;20364;-36
2023/03/29 00:52:29;;;;;;;1.98;1.27;;;11.20;99.90;;;;;;5032200;28;20132;-37
2023/03/29 00:54:58;;;;;;;2.08;1.33;;;11.20;99.90;;;;;;5033058;28;20122;-41
2023/03/29 00:57:26;;;;;;;1.63;1.20;;;11.20;99.90;;;;;;5032440;28;20021;-40
2023/03/29 00:59:53;;;;;;;2.05;1.20;;;11.20;99.90;;;;;;5032744;28;20360;-39
2023/03/29 01:02:22;;;;;;;2.58;1.60;;;11.20;99.90;;;;;;5032574;28;20056;-38
2023/03/29 01:04:47;;;;;;;2.20;1.40;;;11.20;99.90;;;;;;5032224;28;20025;-36
2023/03/29 01:07:29;;;;;;;1.15;1.00;;;11.20;99.90;;;;;;5031342;28;20032;-36
2023/03/29 01:10:11;;;;;;;1.90;1.10;;;11.20;99.90;;;;;;5032031;28;20029;-38
2023/03/29 01:12:45;;;;;;;1.60;1.33;;;11.20;99.90;;;;;;5032431;28;20083;-39
2023/03/29 01:15:14;;;;;;;3.13;1.13;;;11.20;99.90;;;;;;5032057;28;20025;-38
2023/03/29 01:17:42;;;;;;;2.28;1.35;;;11.20;99.90;;;;;;5031177;28;20432;-39
2023/03/29 01:20:43;;;;;;;1.85;1.20;;;11.20;99.90;;;;;;5032100;28;20109;-38
2023/03/29 01:23:29;;;;;;;2.13;1.30;;;11.20;99.90;;;;;;5026697;28;20037;-37
2023/03/29 01:26:03;;;;;;;3.65;1.30;;;11.20;99.90;;;;;;5031193;28;20029;-38
2023/03/29 01:28:37;;;;;;;2.42;1.40;;;11.10;99.90;;;;;;5031131;28;20399;-35
2023/03/29 01:31:10;;;;;;;1.35;1.10;;;11.20;99.90;;;;;;5031756;28;20399;-38
2023/03/29 01:33:42;;;;;;;2.22;1.10;;;11.20;99.90;;;;;;5031156;28;20029;-38
2023/03/29 01:36:13;;;;;;;1.83;1.17;;;11.20;99.90;;;;;;5032139;28;20037;-36
2023/03/29 01:38:40;;;;;;;1.63;1.15;;;11.10;99.90;;;;;;5029972;28;20025;-38
2023/03/29 01:41:06;;;;;;;1.63;1.20;;;11.10;99.90;;;;;;5031603;28;20380;-36
2023/03/29 01:43:57;;;;;;;1.45;1.00;;;11.20;99.90;;;;;;5032035;28;20083;-39
2023/03/29 01:46:31;;;;;;;2.50;1.10;;;11.20;99.90;;;;;;5031624;28;20018;-36
2023/03/29 01:49:31;;;;;;;1.65;1.05;;;11.20;99.90;;;;;;5031948;28;20045;-35
2023/03/29 01:52:21;;;;;;;1.67;1.20;;;11.20;99.90;;;;;;5027729;28;20049;-37
2023/03/29 01:54:53;;;;;;;3.00;1.42;;;11.10;99.90;;;;;;5031520;28;20024;-39
2023/03/29 01:57:23;;;;;;;3.15;1.42;;;11.20;99.90;;;;;;5031138;28;20476;-38
2023/03/29 01:59:52;;;;;;;2.83;1.30;;;11.10;99.90;;;;;;5032040;28;20382;-37
2023/03/29 02:02:21;;;;;;;2.05;1.17;;;11.10;99.90;;;;;;5031586;28;20033;-37
2023/03/29 02:04:52;;;;;;;2.67;1.40;;;11.20;99.90;;;;;;5032175;28;20029;-40
2023/03/29 02:07:22;;;;;;;1.70;1.00;;;11.50;99.90;;;;;;5030798;28;20026;-37
2023/03/29 02:09:51;;;;;;;1.75;1.20;;;11.70;99.90;;;;;;5031205;28;20593;-39
2023/03/29 02:12:17;;;;;;;2.10;1.10;;;11.70;99.90;;;;;;5031352;28;20139;-36
2023/03/29 02:14:42;;;;;;;1.83;1.13;;;11.60;99.90;;;;;;5031513;28;20471;-37
2023/03/29 02:17:20;;;;;;;1.70;1.30;;;11.60;99.90;;;;;;5031641;28;20111;-37
2023/03/29 02:19:50;;;;;;;1.70;1.25;;;11.50;99.90;;;;;;5030841;28;20031;-37
2023/03/29 02:22:25;;;;;;;1.42;1.00;;;11.50;99.90;;;;;;5031667;28;20108;-38
2023/03/29 02:24:52;;;;;;;;;;;11.40;99.90;;;;;;5031525;28;20117;-37
2023/03/29 02:27:18;;;;;;;1.98;1.30;;;11.40;99.90;;;;;;5030538;28;19913;-36
2023/03/29 02:29:45;;;;;;;1.95;1.30;;;11.40;99.90;;;;;;5031902;28;20014;-39
2023/03/29 02:32:19;;;;;;;2.85;1.55;;;11.40;99.90;;;;;;5031517;28;20373;-38
2023/03/29 02:34:57;;;;;;;4.37;1.53;;;11.40;99.90;;;;;;5030627;28;20033;-38
2023/03/29 02:37:28;;;;;;;1.83;1.60;;;11.30;99.90;;;;;;5031125;28;20082;-39
2023/03/29 02:39:55;;;;;;;3.42;1.45;;;11.30;99.90;;;;;;5031515;28;20392;-38
2023/03/29 02:42:22;;;;;;;1.58;1.20;;;11.30;99.90;;;;;;5031405;28;20064;-36
2023/03/29 02:44:52;;;;;;;2.03;1.20;;;11.30;99.90;;;;;;5031756;28;20063;-35
2023/03/29 02:47:30;;;;;;;1.60;1.17;;;11.30;99.90;;;;;;5034325;28;20376;-38
2023/03/29 02:49:57;;;;;;;1.45;1.13;;;11.30;99.90;;;;;;5034000;28;20029;-36
2023/03/29 02:52:27;;;;;;;4.70;1.60;;;11.30;99.90;;;;;;5034415;28;20545;-36
2023/03/29 02:54:54;;;;;;;2.33;1.60;;;11.30;99.90;;;;;;5034530;28;20487;-36
2023/03/29 02:57:25;;;;;;;2.05;1.50;;;11.20;99.90;;;;;;5033884;28;20034;-35
2023/03/29 02:59:52;;;;;;;2.03;1.30;;;11.20;99.90;;;;;;5033888;28;20053;-39
2023/03/29 03:02:18;;;;;;;2.33;1.30;;;11.20;99.90;;;;;;5034227;28;20427;-39
2023/03/29 03:04:44;;;;;;;1.70;1.15;;;11.20;99.90;;;;;;5035003;28;20037;-39
2023/03/29 03:07:10;;;;;;;2.55;1.40;;;11.30;99.90;;;;;;5033784;28;20056;-37
2023/03/29 03:09:36;;;;;;;1.80;0.98;;;11.60;99.90;;;;;;5034364;28;20024;-36
2023/03/29 03:12:02;;;;;;;1.67;1.10;;;11.70;99.90;;;;;;5034769;28;20026;-37
2023/03/29 03:14:28;;;;;;;2.55;1.65;;;11.70;99.90;;;;;;5034918;28;20413;-36
2023/03/29 03:16:54;;;;;;;1.70;1.08;;;11.60;99.90;;;;;;5033472;28;20534;-36
2023/03/29 03:19:20;;;;;;;2.13;1.20;;;11.60;99.90;;;;;;5035408;28;20033;-36
2023/03/29 03:21:46;;;;;;;2.28;1.40;;;11.50;99.90;;;;;;5034405;28;20032;-39
2023/03/29 03:24:12;;;;;;;2.10;1.35;;;11.50;99.90;;;;;;5035069;28;20468;-39
2023/03/29 03:26:39;;;;;;;2.63;1.27;;;11.40;99.90;;;;;;5032031;28;20565;-40
2023/03/29 03:29:05;;;;;;;2.08;1.15;;;11.40;99.90;;;;;;5034752;28;20104;-41
2023/03/29 03:31:32;;;;;;;1.90;1.20;;;11.40;99.90;;;;;;5033586;28;20025;-37
2023/03/29 03:33:58;;;;;;;3.08;1.30;;;11.30;99.90;;;;;;5033883;28;20087;-41
2023/03/29 03:36:24;;;;;;;1.33;1.10;;;11.40;99.90;;;;;;5033444;28;20031;-40
2023/03/29 03:38:52;;;;;;;2.40;1.30;;;11.30;99.90;;;;;;5033951;28;20112;-42
2023/03/29 03:41:17;;;;;;;2.35;0.90;;;11.30;99.90;;;;;;5032854;28;20467;-37
2023/03/29 03:43:47;;;;;;;1.30;1.00;;;11.30;99.90;;;;;;5033137;28;20049;-38
2023/03/29 03:46:16;;;;;;;1.58;1.20;;;11.30;99.90;;;;;;5033496;28;20021;-37
2023/03/29 03:48:42;;;;;;;1.65;1.08;;;11.30;99.90;;;;;;5033982;28;20017;-36
2023/03/29 03:51:09;;;;;;;1.10;1.00;;;11.30;99.90;;;;;;5033310;28;20036;-36
2023/03/29 03:53:34;;;;;;;2.20;1.30;;;11.30;99.90;;;;;;5032824;28;20029;-38
2023/03/29 03:56:01;;;;;;;1.63;1.20;;;11.20;99.90;;;;;;5032883;28;20413;-43
2023/03/29 03:58:27;;;;;;;1.52;1.30;;;11.20;99.90;;;;;;5032673;28;20052;-38
2023/03/29 04:00:53;;;;;;;1.45;1.10;;;11.20;99.90;;;;;;5032566;28;20037;-40
2023/03/29 04:03:20;;;;;;;1.75;1.20;;;11.20;99.90;;;;;;5033916;28;20030;-36
2023/03/29 04:05:46;;;;;;;2.72;1.17;;;11.20;99.90;;;;;;5032256;28;20049;-36
2023/03/29 04:08:13;;;;;;;3.20;1.23;;;11.40;99.90;;;;;;5032130;28;20026;-36
2023/03/29 04:10:38;;;;;;;2.10;1.17;;;11.60;99.90;;;;;;5032438;28;20479;-37
2023/03/29 04:13:04;;;;;;;2.85;1.40;;;11.60;99.90;;;;;;5032494;28;20113;-38
2023/03/29 04:15:31;;;;;;;1.27;1.10;;;11.60;99.90;;;;;;5032582;28;20403;-39
2023/03/29 04:17:58;;;;;;;1.67;0.95;;;11.60;99.90;;;;;;5032205;28;20044;-37
2023/03/29 04:20:24;;;;;;;1.77;1.20;;;11.50;99.90;;;;;;5033211;28;20167;-36
2023/03/29 04:22:51;;;;;;;1.83;0.90;;;11.50;99.90;;;;;;5033316;28;20390;-38
2023/03/29 04:25:17;;;;;;;1.45;1.08;;;11.40;99.90;;;;;;5033246;28;20026;-37
2023/03/29 04:27:43;;;;;;;1.50;1.00;;;11.40;99.90;;;;;;5033402;28;20029;-36
2023/03/29 04:30:10;;;;;;;2.08;1.27;;;11.30;99.90;;;;;;5032137;28;20029;-37
2023/03/29 04:32:36;;;;;;;1.60;0.80;;;11.30;99.90;;;;;;5033170;28;20038;-37
2023/03/29 04:35:03;;;;;;;1.42;1.02;;;11.30;99.90;;;;;;5032444;28;20034;-36
2023/03/29 04:37:30;;;;;;;1.67;1.00;;;11.30;99.90;;;;;;5032334;28;20017;-38
2023/03/29 04:39:59;;;;;;;1.85;1.20;;;11.30;99.90;;;;;;5032331;28;20426;-39
2023/03/29 04:42:25;;;;;;;1.90;1.00;;;11.30;99.90;;;;;;5033649;28;20014;-38
2023/03/29 04:44:52;;;;;;;1.02;0.90;;;11.20;99.90;;;;;;5032487;28;20025;-39
2023/03/29 04:47:18;;;;;;;1.77;1.20;;;11.20;99.90;;;;;;5032362;28;20104;-37
2023/03/29 04:49:44;;;;;;;3.72;1.10;;;11.20;99.90;;;;;;5032977;28;20083;-35
2023/03/29 04:52:10;;;;;;;3.03;1.40;;;11.20;99.90;;;;;;5032621;28;20456;-38
2023/03/29 04:54:36;;;;;;;1.92;1.20;;;11.20;99.90;;;;;;5031587;28;20029;-36
2023/03/29 04:57:03;;;;;;;2.30;1.30;;;11.20;99.90;;;;;;5031121;28;20025;-38
2023/03/29 04:59:29;;;;;;;3.67;1.20;;;11.20;99.90;;;;;;5032027;28;20037;-36
2023/03/29 05:01:55;;;;;;;1.85;1.20;;;11.20;99.90;;;;;;5031929;28;20542;-36
2023/03/29 05:04:21;;;;;;;1.65;1.00;;;11.20;99.90;;;;;;5031446;28;20029;-36
2023/03/29 05:06:47;;;;;;;2.30;1.50;;;11.40;99.90;;;;;;5031703;28;20025;-36
2023/03/29 05:09:13;;;;;;;1.80;1.10;;;11.60;99.90;;;;;;5032696;28;20472;-39
2023/03/29 05:11:39;;;;;;;1.88;1.27;;;11.60;99.90;;;;;;5031753;28;20044;-39
2023/03/29 05:14:06;;;;;;;1.58;1.15;;;11.60;99.90;;;;;;5032429;28;20029;-38
2023/03/29 05:16:33;;;;;;;1.50;1.20;;;11.50;99.90;;;;;;5031606;28;20479;-36
2023/03/29 05:18:59;;;;;;;2.13;0.90;;;11.50;99.90;;;;;;5032546;28;20115;-39
2023/03/29 05:21:27;;;;;;;1.52;1.20;;;11.40;99.90;;;;;;5032541;28;20034;-36
2023/03/29 05:23:53;;;;;;;1.10;0.95;;;11.40;99.90;;;;;;5032038;28;20025;-37
2023/03/29 05:26:21;;;;;;;2.22;1.42;;;11.40;99.90;;;;;;5030888;28;20080;-37
2023/03/29 05:28:47;;;;;;;2.63;1.35;;;11.30;99.90;;;;;;5031889;28;20075;-38
2023/03/29 05:31:13;;;;;;;1.65;1.20;;;11.30;99.90;;;;;;5032489;28;20028;-37
2023/03/29 05:33:38;;;;;;;2.90;1.13;;;11.30;99.90;;;;;;5031166;28;20041;-36
2023/03/29 05:36:07;;;;;;;2.40;1.27;;;11.30;99.90;;;;;;5030807;28;20028;-38
2023/03/29 05:38:33;;;;;;;1.30;1.00;;;11.20;99.90;;;;;;5031538;28;20069;-39
2023/03/29 05:40:59;;;;;;;2.45;1.30;;;11.20;99.90;;;;;;5030937;28;20076;-38
2023/03/29 05:43:25;;;;;;;2.72;1.50;;;11.20;99.90;;;;;;5031522;28;20128;-40
2023/03/29 05:45:52;;;;;;;1.92;1.20;;;11.20;99.90;;;;;;5031122;28;20468;-36
2023/03/29 05:48:19;;;;;;;3.10;1.35;;;11.20;99.90;;;;;;5030763;28;20095;-39
2023/03/29 05:50:49;;;;;;;2.20;1.20;;;11.20;99.90;;;;;;5032067;28;20033;-36
2023/03/29 05:53:16;;;;;;;1.88;1.40;;;11.20;99.90;;;;;;5031755;28;20067;-39
2023/03/29 05:55:42;;;;;;;4.05;1.95;;;11.20;99.90;;;;;;5031570;28;20045;-39
2023/03/29 05:58:09;;;;;;;1.98;1.27;;;11.10;99.90;;;;;;5030596;28;20068;-36
2023/03/29 06:00:36;;;;;;;1.58;1.23;;;11.20;99.90;;;;;;5032444;28;20025;-37
2023/03/29 06:03:02;;;;;;;1.67;1.20;;;11.20;99.90;;;;;;5032058;28;20117;-37
2023/03/29 06:05:28;;;;;;;2.20;1.60;;;11.10;99.90;;;;;;5030580;28;20041;-37
2023/03/29 06:07:55;;;;;;;3.47;1.50;;;11.10;99.90;;;;;;5030442;28;20022;-36
2023/03/29 06:10:22;;;;;;;1.90;1.38;;;11.10;99.90;;;;;;5030744;28;20418;-37
2023/03/29 06:12:48;;;;;;;2.03;1.48;;;11.10;99.90;;;;;;5030794;28;20028;-39
2023/03/29 06:15:15;;;;;;;4.32;1.33;;;11.20;99.90;;;;;;5030567;28;20098;-38
2023/03/29 06:17:43;;;;;;;2.05;1.30;;;11.10;99.90;;;;;;5030566;28;20104;-38
2023/03/29 06:20:10;;;;;;;1.92;1.30;;;11.10;99.90;;;;;;5032824;28;20029;-35
2023/03/29 06:22:40;;;;;;;2.10;1.42;;;11.10;99.90;;;;;;5034652;28;20033;-36
2023/03/29 06:25:09;;;;;;;2.40;1.60;;;11.10;99.90;;;;;;5035289;28;20028;-36
2023/03/29 06:27:35;;;;;;;2.63;1.40;;;11.10;99.90;;;;;;5034447;28;20033;-38
2023/03/29 06:30:02;;;;;;;2.40;1.60;;;11.10;99.90;;;;;;5034707;28;20029;-38
2023/03/29 06:32:28;;;;;;;2.60;1.13;;;11.10;99.90;;;;;;5036032;28;20045;-36
2023/03/29 06:34:54;;;;;;;2.03;1.33;;;11.10;99.90;;;;;;5035506;28;20071;-41
2023/03/29 06:37:22;;;;;;;4.38;1.45;;;11.10;99.90;;;;;;5035243;28;20484;-37
2023/03/29 06:39:51;;;;;;;2.60;1.27;;;11.00;99.90;;;;;;5034308;28;20041;-37
2023/03/29 06:42:18;;;;;;;2.38;1.65;;;11.00;99.90;;;;;;5034403;28;20484;-36
2023/03/29 06:44:44;;;;;;;2.88;1.63;;;11.00;99.90;;;;;;5034109;28;20026;-36
2023/03/29 06:47:10;;;;;;;2.55;1.73;;;11.00;99.90;;;;;;5033660;28;20038;-36
2023/03/29 06:49:36;;;;;;;2.90;1.52;;;10.90;99.90;;;;;;5034101;28;20022;-38
2023/03/29 06:52:01;;;;;;;3.22;1.55;;;10.90;99.90;;;;;;5033938;28;20388;-36
2023/03/29 06:54:27;;;;;;;2.47;1.40;;;10.90;99.90;;;;;;5033824;28;20398;-36
2023/03/29 06:56:52;;;;;;;2.47;1.50;;;10.90;99.90;;;;;;5033410;28;20503;-36
2023/03/29 06:59:18;;;;;;;2.40;1.58;;;10.90;99.90;;;;;;5033876;28;20032;-37
2023/03/29 07:01:44;;;;;;;1.50;1.20;;;10.90;99.90;;;;;;5033592;28;20052;-36
2023/03/29 07:04:10;;;;;;;2.28;1.50;;;10.90;99.90;;;;;;5033674;28;20023;-36
2023/03/29 07:06:38;;;;;;;2.10;1.30;;;10.90;99.90;;;;;;5033829;28;20317;-36
2023/03/29 07:09:05;;;;;;;1.92;1.50;;;10.80;99.90;;;;;;5033719;28;20048;-36
2023/03/29 07:11:35;;;;;;;2.47;1.58;;;10.80;99.90;;;;;;5033677;28;20030;-36
2023/03/29 07:14:02;;;;;;;2.30;1.20;;;10.90;99.90;;;;;;5034456;28;20033;-36
2023/03/29 07:16:28;;;;;;;2.10;1.40;;;10.80;99.90;;;;;;5033259;28;20522;-36
2023/03/29 07:18:53;;;;;;;1.88;1.40;;;10.90;99.90;;;;;;5033521;28;20030;-36
2023/03/29 07:21:19;;;;;;;2.92;1.60;;;10.90;99.90;;;;;;5033263;28;20087;-36
2023/03/29 07:23:45;;;;;;;2.22;1.60;;;10.90;99.90;;;;;;5033388;28;20020;-36
2023/03/29 07:26:11;;;;;;;1.98;1.40;;;10.90;99.90;;;;;;5032928;28;20037;-35
2023/03/29 07:28:38;;;;;;;2.25;1.33;;;10.90;99.90;;;;;;5033445;28;20304;-36
2023/03/29 07:31:09;;;;;;;1.67;1.20;;;10.90;99.90;;;;;;5031981;28;20067;-36
2023/03/29 07:33:36;;;;;;;2.08;1.48;;;10.90;99.90;;;;;;5033004;28;20434;-36
2023/03/29 07:36:03;;;;;;;3.50;1.60;;;10.90;99.90;;;;;;5032637;28;20430;-37
2023/03/29 07:38:30;;;;;;;1.90;1.48;;;10.90;99.90;;;;;;5033207;28;20407;-36
2023/03/29 07:40:56;;;;;;;2.15;1.30;;;10.90;99.90;;;;;;5032514;28;20073;-37
2023/03/29 07:43:22;;;;;;;2.17;1.02;;;10.90;99.90;;;;;;5034150;28;20457;-37
2023/03/29 07:45:50;;;;;;;3.10;1.50;;;10.90;99.90;;;;;;5033361;28;20026;-36
2023/03/29 07:48:17;;;;;;;1.50;1.20;;;10.90;99.90;;;;;;5032835;28;20377;-37
2023/03/29 07:50:43;;;;;;;1.52;1.20;;;10.90;99.90;;;;;;5034161;28;20403;-38
2023/03/29 07:53:09;;;;;;;2.35;1.42;;;10.90;99.90;;;;;;5034570;28;20141;-38
2023/03/29 07:55:34;;;;;;;3.00;1.55;;;10.90;99.90;;;;;;5033560;28;20064;-38
2023/03/29 07:58:00;;;;;;;3.08;1.50;;;10.90;99.90;;;;;;5032795;28;20022;-36
2023/03/29 08:00:26;;;;;;;3.47;1.60;;;10.90;99.90;;;;;;5033706;28;20076;-40
2023/03/29 08:02:52;;;;;;;2.20;1.52;;;10.90;99.90;;;;;;5032739;28;20475;-36
2023/03/29 08:05:21;;;;;;;3.30;1.42;;;10.90;99.90;;;;;;5032590;28;20230;-38
2023/03/29 08:07:48;;;;;;;3.20;1.33;;;10.90;99.90;;;;;;5032525;28;20021;-37
2023/03/29 08:10:16;;;;;;;1.88;1.20;;;10.90;99.90;;;;;;5034258;28;20044;-38
2023/03/29 08:12:44;;;;;;;1.85;1.50;;;10.90;99.90;;;;;;5032744;28;20029;-35
2023/03/29 08:15:10;;;;;;;2.58;1.50;;;10.90;99.90;;;;;;5031150;28;20049;-36
2023/03/29 08:17:36;;;;;;;2.00;1.40;;;10.90;99.90;;;;;;5031894;28;20480;-36
2023/03/29 08:20:04;;;;;;;1.45;1.25;;;10.90;99.90;;;;;;5032615;28;20021;-36
2023/03/29 08:22:31;;;;;;;1.63;1.23;;;10.90;99.90;;;;;;5034901;28;20124;-38
2023/03/29 08:24:57;;;;;;;2.42;1.40;;;10.90;99.90;;;;;;5034452;28;20021;-36
2023/03/29 08:27:23;;;;;;;1.65;1.23;;;10.90;99.90;;;;;;5033168;28;20458;-36
2023/03/29 08:29:48;;;;;;;1.85;1.20;;;10.90;99.90;;;;;;5032829;28;20438;-36
2023/03/29 08:32:14;;;;;;;2.47;1.30;;;10.90;99.90;;;;;;5033226;28;20056;-37
2023/03/29 08:34:40;;;;;;;2.75;1.42;;;10.90;99.90;;;;;;5033044;28;20028;-38
2023/03/29 08:37:07;;;;;;;2.33;1.17;;;11.00;99.90;;;;;;5032371;28;20037;-36
2023/03/29 08:39:33;;;;;;;2.78;1.30;;;11.00;99.90;;;;;;5032317;28;20467;-38
2023/03/29 08:42:33;;;;;;;1.95;1.20;;;11.00;99.90;;;;;;5031858;28;20064;-38
2023/03/29 08:45:21;;;;;;;1.98;1.33;;;11.00;99.90;;;;;;5021516;28;20427;-36
2023/03/29 08:47:55;;;;;;;1.33;1.02;;;11.00;99.90;;;;;;5031498;28;20025;-36
2023/03/29 08:50:30;;;;;;;3.40;1.60;;;11.00;99.90;;;;;;5031852;28;20024;-38
2023/03/29 08:53:17;;;;;;;4.75;1.40;;;11.00;99.90;;;;;;5032672;28;20042;-41
2023/03/29 08:55:46;;;;;;;4.05;1.60;;;11.10;99.90;;;;;;5031927;28;20104;-38
2023/03/29 08:58:16;;;;;;;2.67;1.40;;;11.10;99.90;;;;;;5032972;28;20499;-38
2023/03/29 09:00:55;;;;;;;3.20;1.48;;;11.00;99.90;;;;;;5032987;28;20036;-39
2023/03/29 09:03:38;;;;;;;3.55;1.50;;;11.10;99.90;;;;;;5032634;28;20028;-37
2023/03/29 09:06:09;;;;;;;2.25;1.40;;;11.10;99.90;;;;;;5031485;28;20025;-36
2023/03/29 09:08:46;;;;;;;5.15;1.60;;;11.00;99.90;;;;;;5032508;28;20052;-38
2023/03/29 09:11:27;;;;;;;2.75;1.38;;;11.00;99.90;;;;;;5031402;28;20060;-38
2023/03/29 09:13:58;;;;;;;3.10;1.40;;;11.10;99.90;;;;;;5032712;28;20045;-40
2023/03/29 09:16:24;;;;;;;4.25;1.83;;;11.10;99.90;;;;;;5031283;28;20027;-36
2023/03/29 09:19:18;;;;;;;5.15;1.73;;;11.10;99.90;;;;;;5032403;28;20029;-40
2023/03/29 09:22:08;;;;;;;4.43;1.50;;;11.10;99.90;;;;;;5030178;28;20029;-37
2023/03/29 09:24:39;;;;;;;4.13;1.55;;;11.00;99.90;;;;;;5032583;28;20029;-43
2023/03/29 09:27:14;;;;;;;2.67;1.38;;;11.00;99.90;;;;;;5031304;28;20032;-45
2023/03/29 09:29:54;;;;;;;4.15;1.40;;;11.00;99.90;;;;;;5031978;28;20028;-39
2023/03/29 09:32:26;;;;;;;4.57;1.40;;;11.10;99.90;;;;;;5032286;28;20033;-38
2023/03/29 09:35:00;;;;;;;4.50;1.48;;;11.00;99.90;;;;;;5031871;28;20502;-40
2023/03/29 09:37:31;;;;;;;;;;;11.00;99.90;;;;;;5031258;28;20056;-39
2023/03/29 09:39:57;;;;;;;7.55;2.40;;;11.10;99.90;;;;;;5030557;28;19916;-38
2023/03/29 09:42:27;;;;;;;2.75;1.38;;;11.00;99.90;;;;;;5031026;28;20044;-38
2023/03/29 09:45:00;;;;;;;4.82;1.40;;;11.10;99.90;;;;;;5031123;28;20024;-38
2023/03/29 09:47:31;;;;;;;3.33;1.20;;;11.10;99.90;;;;;;5030514;28;20521;-39
2023/03/29 09:50:18;;;;;;;2.25;1.52;;;11.10;99.90;;;;;;5030900;28;20021;-38
2023/03/29 09:52:45;;;;;;;2.63;1.27;;;11.10;99.90;;;;;;5031164;28;20029;-39
2023/03/29 09:55:15;;;;;;;1.58;1.13;;;11.20;99.90;;;;;;5032948;28;20025;-38
2023/03/29 09:57:42;;;;;;;2.60;1.48;;;11.20;99.90;;;;;;5034535;28;20056;-38
2023/03/29 10:00:09;;;;;;;2.88;1.33;;;11.20;99.90;;;;;;5034800;28;20480;-39
2023/03/29 10:02:35;;;;;;;3.25;1.27;;;11.30;99.90;;;;;;5034771;28;20040;-38
2023/03/29 10:05:06;;;;;;;5.28;1.40;;;11.30;99.90;;;;;;5034977;28;20080;-37
2023/03/29 10:07:45;;;;;;;1.80;1.27;;;11.20;99.90;;;;;;5034483;28;20018;-38
2023/03/29 10:10:24;;;;;;;4.38;1.35;;;11.20;99.90;;;;;;5034818;28;20025;-37
2023/03/29 10:12:52;;;;;;;2.03;1.05;;;11.20;99.90;;;;;;5034683;28;20023;-39
2023/03/29 10:15:19;;;;;;;2.45;1.15;;;11.20;99.90;;;;;;5034620;28;20025;-38
2023/03/29 10:17:46;;;;;;;1.67;1.25;;;11.20;99.90;;;;;;5034304;28;20030;-38
2023/03/29 10:20:17;;;;;;;1.40;0.75;;;11.30;99.90;;;;;;5034637;28;20451;-38
2023/03/29 10:22:53;;;;;;;1.98;1.02;;;11.30;99.90;;;;;;5034677;28;20022;-38
2023/03/29 10:25:18;;;;;;;2.13;1.30;;;11.30;99.90;;;;;;5034888;28;20099;-39
2023/03/29 10:27:46;;;;;;;2.63;1.17;;;11.30;99.90;;;;;;5033956;28;20029;-37
2023/03/29 10:30:20;;;;;;;2.30;1.20;;;11.30;99.90;;;;;;5033191;28;20025;-38
2023/03/29 10:32:50;;;;;;;2.55;1.10;;;11.30;99.90;;;;;;5034497;28;20060;-39
2023/03/29 10:35:38;;;;;;;2.50;1.08;;;11.40;99.90;;;;;;5034538;28;20033;-41
2023/03/29 10:38:10;;;;;;;3.42;1.10;;;11.30;99.90;;;;;;5035147;28;20435;-40
2023/03/29 10:40:43;;;;;;;2.25;1.20;;;11.40;99.90;;;;;;5033465;28;20045;-40
2023/03/29 10:43:18;;;;;;;2.35;1.17;;;11.40;99.90;;;;;;5034936;28;20510;-39
2023/03/29 10:45:48;;;;;;;2.10;1.10;;;11.50;99.90;;;;;;5033978;28;20369;-39
2023/03/29 10:48:16;;;;;;;1.67;0.90;;;11.50;99.90;;;;;;5034868;28;20032;-36
2023/03/29 10:50:47;;;;;;;2.45;1.30;;;11.50;99.90;;;;;;5035835;28;20025;-36
2023/03/29 10:53:19;;;;;;;1.30;1.02;;;11.50;99.90;;;;;;5034967;28;20052;-36
2023/03/29 10:56:08;;;;;;;2.28;1.20;;;11.50;99.90;;;;;;5033870;28;20104;-40
2023/03/29 10:59:02;;;;;;;1.48;1.00;;;11.50;99.90;;;;;;5030363;28;20488;-36
2023/03/29 11:01:51;;;;;;;2.03;1.20;;;11.50;99.90;;;;;;5033894;28;20491;-40
2023/03/29 11:04:25;;;;;;;2.00;1.13;;;11.60;99.90;;;;;;5031090;28;20029;-42
2023/03/29 11:07:22;;;;;;;1.77;1.00;;;11.60;99.90;;;;;;5033616;28;20349;-36
2023/03/29 11:09:48;;;;;;;2.17;1.00;;;11.60;99.90;;;;;;5034433;28;20061;-40
2023/03/29 11:12:37;;;;;;;2.38;0.93;;;11.60;99.90;;;;;;5034089;28;20506;-36
2023/03/29 11:15:21;;;;;;;1.50;0.90;;;11.60;99.90;;;;;;5034425;28;20104;-36
2023/03/29 11:17:54;;;;;;;2.60;1.00;;;11.60;99.90;;;;;;5033681;28;20105;-39
2023/03/29 11:20:40;;;;;;;1.52;1.20;;;11.60;99.90;;;;;;5034291;28;20053;-38
2023/03/29 11:23:27;;;;;;;1.45;1.00;;;11.70;99.90;;;;;;5033813;28;20025;-37
2023/03/29 11:26:07;;;;;;;1.13;0.80;;;11.70;99.90;;;;;;5033741;28;20025;-38
2023/03/29 11:28:51;;;;;;;2.00;0.93;;;11.70;99.90;;;;;;5033363;28;20510;-36
2023/03/29 11:31:23;;;;;;;2.17;1.10;;;11.70;99.90;;;;;;5033562;28;20096;-40
2023/03/29 11:34:26;;;;;;;1.80;0.95;;;11.70;99.90;;;;;;5033438;28;20125;-38
2023/03/29 11:37:19;;;;;;;1.52;0.93;;;11.70;99.90;;;;;;5032893;28;20009;-38
2023/03/29 11:40:00;;;;;;;2.83;1.23;;;11.80;99.90;;;;;;5031075;28;20044;-36
2023/03/29 11:42:32;;;;;;;2.17;1.00;;;11.80;99.90;;;;;;5033221;28;20038;-36
2023/03/29 11:45:00;;;;;;;1.88;0.90;;;11.80;99.90;;;;;;5033244;28;20361;-36
2023/03/29 11:47:32;;;;;;;1.70;0.90;;;11.80;99.90;;;;;;5032520;28;20491;-36
2023/03/29 11:50:21;;;;;;;2.33;1.02;;;11.70;99.90;;;;;;5033248;28;20105;-37
2023/03/29 11:53:07;;;;;;;1.58;1.10;;;11.80;99.90;;;;;;5033684;28;20104;-36
2023/03/29 11:55:36;;;;;;;2.58;1.27;;;11.80;99.90;;;;;;5032799;28;20026;-36
2023/03/29 11:58:25;;;;;;;5.50;1.00;;;11.80;99.90;;;;;;5032274;28;20109;-37
2023/03/29 12:00:55;;;;;;;2.80;1.20;;;11.70;99.90;;;;;;5032775;28;20088;-36
2023/03/29 12:03:46;;;;;;;2.75;1.20;;;11.80;99.90;;;;;;5032845;28;20052;-36
2023/03/29 12:06:25;;;;;;;2.90;0.90;;;11.80;99.90;;;;;;5032140;28;20443;-36
2023/03/29 12:09:14;;;;;;;2.20;1.10;;;11.80;99.90;;;;;;5032503;28;20018;-36
2023/03/29 12:11:51;;;;;;;2.72;1.10;;;11.80;99.90;;;;;;5032766;28;20083;-42
2023/03/29 12:14:27;;;;;;;2.03;0.95;;;11.80;99.90;;;;;;5032948;28;20028;-36
2023/03/29 12:16:59;;;;;;;4.00;1.33;;;11.80;99.90;;;;;;5031374;28;20386;-36
2023/03/29 12:19:40;;;;;;;2.35;1.00;;;11.80;99.90;;;;;;5032621;28;20385;-36
2023/03/29 12:22:07;;;;;;;2.25;1.00;;;11.80;99.90;;;;;;5032620;28;20156;-36
2023/03/29 12:24:37;;;;;;;2.22;0.80;;;11.70;99.90;;;;;;5032600;28;20056;-36
2023/03/29 12:27:18;;;;;;;2.10;1.10;;;11.70;99.90;;;;;;5032109;28;20025;-37
2023/03/29 12:30:18;;;;;;;3.15;1.13;;;11.70;99.90;;;;;;5032136;28;20021;-36
2023/03/29 12:32:56;;;;;;;1.95;1.00;;;11.80;99.90;;;;;;5032259;28;20014;-36
2023/03/29 12:35:39;;;;;;;1.85;0.88;;;11.80;99.90;;;;;;5032438;28;20022;-36
2023/03/29 12:38:14;;;;;;;1.90;1.00;;;11.70;99.90;;;;;;5031758;28;20028;-36
2023/03/29 12:40:45;;;;;;;2.15;1.15;;;11.70;99.90;;;;;;5031621;28;20029;-36
2023/03/29 12:43:23;;;;;;;2.40;1.00;;;11.70;99.90;;;;;;5033050;28;20022;-39
2023/03/29 12:45:54;;;;;;;3.15;1.08;;;11.70;99.90;;;;;;5033693;28;20029;-42
2023/03/29 12:48:27;;;;;;;1.80;0.90;;;11.70;99.90;;;;;;5032018;28;20029;-39
2023/03/29 12:51:00;;;;;;;2.28;1.00;;;11.70;99.90;;;;;;5033077;28;20032;-36
2023/03/29 12:53:35;;;;;;;2.33;1.10;;;11.70;99.90;;;;;;5032192;28;20064;-38
2023/03/29 12:56:11;;;;;;;1.50;0.90;;;11.70;99.90;;;;;;5031375;28;20033;-37
2023/03/29 12:58:41;;;;;;;1.80;0.80;;;11.70;99.90;;;;;;5032111;28;20091;-38
2023/03/29 13:01:27;;;;;;;2.03;1.20;;;11.70;99.90;;;;;;5031456;28;20021;-36
2023/03/29 13:03:58;;;;;;;1.25;0.90;;;11.70;99.90;;;;;;5031902;28;20164;-38
2023/03/29 13:06:29;;;;;;;1.23;0.80;;;11.70;99.90;;;;;;5030948;28;20100;-37